Time;durP1;ratioP1;P1;durP2;ratioP2;P2;SDS_P1;SDS_P2;PMS_P1;PMS_P2;Temp;Humidity;BMP_temperature;BMP_pressure;BME280_temperature;BME280_humidity;BME280_pressure;Samples;Min_cycle;Max_cycle;Signal;HPM_P1;HPM_P2
2023/04/16 00:01:52;;;;;;;6.97;5.13;;;;;;;;;;5014788;28;20052;-73
2023/04/16 00:04:37;;;;;;;8.65;5.68;;;;;;;;;;5017634;28;20026;-73
2023/04/16 00:07:22;;;;;;;7.60;5.25;;;;;;;;;;5019197;28;20175;-75
2023/04/16 00:10:08;;;;;;;8.68;5.97;;;;;;;;;;5029042;28;20041;-74
2023/04/16 00:12:53;;;;;;;9.77;5.47;;;;;;;;;;5029607;28;20480;-74
2023/04/16 00:15:38;;;;;;;7.28;4.95;;;;;;;;;;5012937;28;20032;-75
2023/04/16 00:18:23;;;;;;;7.78;5.05;;;;;;;;;;5015605;28;20033;-74
2023/04/16 00:21:09;;;;;;;9.70;5.85;;;;;;;;;;5019865;28;20614;-75
2023/04/16 00:23:54;;;;;;;8.13;5.03;;;;;;;;;;5028485;28;20033;-76
2023/04/16 00:26:39;;;;;;;9.65;5.72;;;;;;;;;;5029488;28;20030;-76
2023/04/16 00:29:27;;;;;;;7.38;5.45;;;;;;;;;;5013000;28;20033;-75
2023/04/16 00:32:12;;;;;;;7.80;5.38;;;;;;;;;;5007025;28;20376;-73
2023/04/16 00:34:58;;;;;;;8.02;5.80;;;;;;;;;;5029362;28;20029;-79
2023/04/16 00:37:43;;;;;;;9.35;6.47;;;;;;;;;;5028024;28;20507;-80
2023/04/16 00:40:28;;;;;;;8.85;5.78;;;;;;;;;;5025129;28;20116;-77
2023/04/16 00:43:21;;;;;;;8.82;6.30;;;;;;;;;;5029169;28;20641;-78
2023/04/16 00:46:07;;;;;;;8.95;5.95;;;;;;;;;;5020355;28;20044;-78
2023/04/16 00:48:52;;;;;;;7.93;5.22;;;;;;;;;;5012245;28;20033;-78
2023/04/16 00:51:38;;;;;;;8.65;6.43;;;;;;;;;;5028406;28;20037;-71
2023/04/16 00:54:23;;;;;;;8.32;5.30;;;;;;;;;;5009955;28;20029;-73
2023/04/16 00:57:09;;;;;;;8.10;5.53;;;;;;;;;;5014283;28;20030;-72
2023/04/16 00:59:55;;;;;;;8.35;5.63;;;;;;;;;;5028680;28;20037;-72
2023/04/16 01:02:40;;;;;;;8.77;6.32;;;;;;;;;;5025821;28;20068;-73
2023/04/16 01:05:25;;;;;;;9.07;5.63;;;;;;;;;;5027079;28;20041;-73
2023/04/16 01:08:18;;;;;;;7.65;5.13;;;;;;;;;;5026323;28;20488;-73
2023/04/16 01:11:03;;;;;;;8.13;5.70;;;;;;;;;;5028658;28;20045;-70
2023/04/16 01:13:48;;;;;;;7.28;5.25;;;;;;;;;;5027727;28;20053;-69
2023/04/16 01:16:34;;;;;;;6.97;5.25;;;;;;;;;;5009233;28;20037;-70
2023/04/16 01:19:19;;;;;;;9.85;5.88;;;;;;;;;;5028677;28;20084;-67
2023/04/16 01:22:04;;;;;;;8.82;4.75;;;;;;;;;;5028519;28;20049;-69
2023/04/16 01:24:49;;;;;;;6.43;4.32;;;;;;;;;;5027897;28;20034;-68
2023/04/16 01:27:36;;;;;;;7.72;4.72;;;;;;;;;;5015074;28;20030;-68
2023/04/16 01:30:21;;;;;;;9.30;5.35;;;;;;;;;;5017189;28;20037;-71
2023/04/16 01:33:08;;;;;;;8.48;4.95;;;;;;;;;;5026530;28;20045;-73
2023/04/16 01:35:53;;;;;;;6.50;4.43;;;;;;;;;;5027008;28;20557;-72
2023/04/16 01:38:38;;;;;;;7.00;4.65;;;;;;;;;;5025831;28;20039;-73
2023/04/16 01:41:23;;;;;;;6.18;4.28;;;;;;;;;;5027406;28;20072;-72
2023/04/16 01:44:09;;;;;;;6.07;4.20;;;;;;;;;;5019389;28;20087;-74
2023/04/16 01:46:54;;;;;;;8.00;4.60;;;;;;;;;;5027675;28;20029;-73
2023/04/16 01:49:39;;;;;;;5.10;3.90;;;;;;;;;;5016463;28;20030;-74
2023/04/16 01:52:24;;;;;;;6.63;4.30;;;;;;;;;;5008657;28;20080;-73
2023/04/16 01:55:10;;;;;;;6.32;4.45;;;;;;;;;;5027253;28;20025;-73
2023/04/16 01:57:55;;;;;;;6.90;4.30;;;;;;;;;;5026285;28;20046;-73
2023/04/16 02:00:40;;;;;;;4.75;3.92;;;;;;;;;;5026987;28;20084;-76
2023/04/16 02:03:25;;;;;;;5.53;3.92;;;;;;;;;;5031271;28;20040;-73
2023/04/16 02:06:11;;;;;;;7.43;4.60;;;;;;;;;;5018500;28;20032;-73
2023/04/16 02:08:56;;;;;;;5.40;3.67;;;;;;;;;;5026131;28;20037;-76
2023/04/16 02:11:41;;;;;;;5.35;3.95;;;;;;;;;;5033551;28;20045;-74
2023/04/16 02:14:26;;;;;;;5.60;4.07;;;;;;;;;;5028364;28;20059;-75
2023/04/16 02:17:12;;;;;;;7.10;4.13;;;;;;;;;;5000254;28;20042;-75
2023/04/16 02:19:57;;;;;;;8.10;5.10;;;;;;;;;;5011261;28;20065;-73
2023/04/16 02:22:42;;;;;;;6.35;3.97;;;;;;;;;;5011077;28;20040;-75
2023/04/16 02:25:27;;;;;;;5.35;3.72;;;;;;;;;;5031429;28;20044;-79
2023/04/16 02:28:14;;;;;;;5.35;3.72;;;;;;;;;;5032224;28;20115;-78
2023/04/16 02:30:59;;;;;;;7.80;4.30;;;;;;;;;;5011998;28;20125;-79
2023/04/16 02:33:45;;;;;;;6.13;4.13;;;;;;;;;;5031670;28;20047;-76
2023/04/16 02:36:31;;;;;;;6.05;3.63;;;;;;;;;;5027187;28;20040;-78
2023/04/16 02:39:16;;;;;;;5.75;4.03;;;;;;;;;;5013624;28;20488;-77
2023/04/16 02:42:01;;;;;;;7.50;4.75;;;;;;;;;;5030817;28;20045;-74
2023/04/16 02:44:47;;;;;;;6.97;4.10;;;;;;;;;;5017381;28;20375;-74
2023/04/16 02:47:32;;;;;;;5.60;3.60;;;;;;;;;;5017351;28;20094;-73
2023/04/16 02:50:17;;;;;;;8.23;4.82;;;;;;;;;;5030367;28;20079;-74
2023/04/16 02:53:03;;;;;;;5.75;3.90;;;;;;;;;;5030697;28;20380;-74
2023/04/16 02:55:51;;;;;;;6.85;4.22;;;;;;;;;;5044642;28;20596;-73
2023/04/16 02:58:37;;;;;;;7.40;4.40;;;;;;;;;;5031107;28;20061;-74
2023/04/16 03:01:22;;;;;;;7.82;4.38;;;;;;;;;;5016177;28;20066;-71
2023/04/16 03:04:07;;;;;;;8.75;5.07;;;;;;;;;;5029854;28;20120;-71
2023/04/16 03:06:52;;;;;;;6.63;4.05;;;;;;;;;;5014337;28;20045;-70
2023/04/16 03:09:38;;;;;;;7.53;4.43;;;;;;;;;;5005011;28;20049;-70
2023/04/16 03:12:23;;;;;;;7.55;4.95;;;;;;;;;;5028318;28;20044;-73
2023/04/16 03:15:08;;;;;;;8.23;4.95;;;;;;;;;;5028641;28;20160;-72
2023/04/16 03:17:53;;;;;;;7.25;4.90;;;;;;;;;;5016687;28;20038;-70
2023/04/16 03:20:39;;;;;;;8.63;5.28;;;;;;;;;;4995761;28;20049;-74
2023/04/16 03:23:25;;;;;;;8.13;5.35;;;;;;;;;;5030375;28;20123;-73
2023/04/16 03:26:10;;;;;;;7.80;5.22;;;;;;;;;;5030513;28;20033;-73
2023/04/16 03:28:55;;;;;;;9.38;5.82;;;;;;;;;;5023580;28;20097;-74
2023/04/16 03:31:40;;;;;;;10.07;5.97;;;;;;;;;;5024446;28;20099;-72
2023/04/16 03:34:26;;;;;;;7.30;4.90;;;;;;;;;;5030853;28;20040;-74
2023/04/16 03:37:11;;;;;;;8.13;5.35;;;;;;;;;;5030495;28;20188;-73
2023/04/16 03:39:56;;;;;;;9.18;5.97;;;;;;;;;;5029321;28;20034;-77
2023/04/16 03:42:41;;;;;;;9.27;5.90;;;;;;;;;;5026942;28;20029;-77
2023/04/16 03:45:27;;;;;;;7.88;5.32;;;;;;;;;;5010325;28;20042;-77
2023/04/16 03:48:12;;;;;;;8.98;5.93;;;;;;;;;;5029134;28;20188;-77
2023/04/16 03:50:57;;;;;;;8.65;5.68;;;;;;;;;;5028575;28;20357;-77
2023/04/16 03:53:43;;;;;;;9.43;6.45;;;;;;;;;;5029442;28;20489;-73
2023/04/16 03:58:56;;;;;;;7.97;5.43;;;;;;;;;;5027093;28;20550;-74
2023/04/16 04:01:42;;;;;;;9.40;5.45;;;;;;;;;;5005227;28;20116;-75
2023/04/16 04:04:27;;;;;;;9.57;6.22;;;;;;;;;;5014652;28;20511;-75
2023/04/16 04:07:12;;;;;;;8.05;4.80;;;;;;;;;;5015531;28;20258;-74
2023/04/16 04:09:57;;;;;;;9.93;5.57;;;;;;;;;;5013311;28;20040;-74
2023/04/16 04:12:43;;;;;;;10.20;5.65;;;;;;;;;;5015632;28;20037;-74
2023/04/16 04:15:28;;;;;;;9.90;6.43;;;;;;;;;;5014808;28;20053;-69
2023/04/16 04:18:13;;;;;;;9.18;5.65;;;;;;;;;;5002349;28;20033;-69
2023/04/16 04:20:59;;;;;;;9.40;6.13;;;;;;;;;;5013382;28;20042;-69
2023/04/16 04:23:44;;;;;;;10.15;6.10;;;;;;;;;;4996011;28;20034;-68
2023/04/16 04:26:29;;;;;;;8.82;5.53;;;;;;;;;;4992084;28;20063;-70
2023/04/16 04:29:14;;;;;;;10.35;6.20;;;;;;;;;;4984491;28;20461;-69
2023/04/16 04:32:00;;;;;;;9.05;5.53;;;;;;;;;;4981104;28;20052;-76
2023/04/16 04:34:45;;;;;;;8.05;5.03;;;;;;;;;;4995904;28;20465;-74
2023/04/16 04:37:30;;;;;;;8.88;5.22;;;;;;;;;;4978280;28;20033;-74
2023/04/16 04:40:15;;;;;;;8.05;5.28;;;;;;;;;;4992980;28;20029;-74
2023/04/16 04:43:01;;;;;;;7.72;4.88;;;;;;;;;;4994828;28;20034;-72
2023/04/16 04:45:47;;;;;;;9.77;5.95;;;;;;;;;;4995685;28;20038;-73
2023/04/16 04:48:46;;;;;;;9.55;5.95;;;;;;;;;;5105891;27;20495;-76
2023/04/16 04:51:31;;;;;;;9.35;5.97;;;;;;;;;;5096552;28;20028;-74
2023/04/16 04:54:17;;;;;;;9.38;5.45;;;;;;;;;;5105004;28;20016;-74
2023/04/16 04:57:02;;;;;;;8.65;5.65;;;;;;;;;;5093649;28;20031;-75
2023/04/16 04:59:47;;;;;;;8.55;5.47;;;;;;;;;;5093848;28;20106;-74
2023/04/16 05:02:32;;;;;;;12.30;6.07;;;;;;;;;;5118787;28;20138;-75
2023/04/16 05:05:18;;;;;;;9.25;6.28;;;;;;;;;;5112734;28;20097;-75
2023/04/16 05:08:03;;;;;;;8.75;5.55;;;;;;;;;;5109024;28;20055;-71
2023/04/16 05:10:48;;;;;;;7.85;4.93;;;;;;;;;;5097861;28;20122;-71
2023/04/16 05:13:33;;;;;;;9.65;5.43;;;;;;;;;;5095377;28;20606;-71
2023/04/16 05:16:19;;;;;;;9.07;5.80;;;;;;;;;;5119802;28;20008;-70
2023/04/16 05:19:04;;;;;;;9.20;5.32;;;;;;;;;;5098786;28;20031;-71
2023/04/16 05:21:50;;;;;;;8.63;5.28;;;;;;;;;;5092201;28;20495;-72
2023/04/16 05:24:35;;;;;;;9.57;5.05;;;;;;;;;;5057123;28;20489;-70
2023/04/16 05:27:20;;;;;;;10.23;6.65;;;;;;;;;;5074669;28;20171;-70
2023/04/16 05:30:06;;;;;;;9.50;5.95;;;;;;;;;;5085029;28;20035;-72
2023/04/16 05:32:51;;;;;;;12.77;7.60;;;;;;;;;;5088989;28;20420;-69
2023/04/16 05:35:36;;;;;;;12.65;7.53;;;;;;;;;;5085854;28;20024;-70
2023/04/16 05:38:21;;;;;;;14.68;9.23;;;;;;;;;;5073920;28;20186;-71
2023/04/16 05:41:07;;;;;;;14.40;9.63;;;;;;;;;;5075126;28;20028;-71
2023/04/16 05:43:52;;;;;;;13.55;8.55;;;;;;;;;;5087856;28;20039;-70
2023/04/16 05:46:37;;;;;;;16.38;9.25;;;;;;;;;;5075329;28;20031;-76
2023/04/16 05:49:22;;;;;;;14.45;9.68;;;;;;;;;;5084624;28;20532;-71
2023/04/16 05:52:07;;;;;;;14.77;10.07;;;;;;;;;;5113144;28;20036;-69
2023/04/16 05:54:53;;;;;;;16.05;10.70;;;;;;;;;;5098828;28;20031;-70
2023/04/16 05:57:38;;;;;;;16.65;11.77;;;;;;;;;;5091650;28;20035;-70
2023/04/16 06:00:23;;;;;;;19.77;13.40;;;;;;;;;;5070495;28;20016;-69
2023/04/16 06:03:08;;;;;;;18.73;12.77;;;;;;;;;;5059083;28;20103;-74
2023/04/16 06:05:54;;;;;;;19.55;12.25;;;;;;;;;;5070192;28;20108;-75
2023/04/16 06:08:39;;;;;;;21.80;13.75;;;;;;;;;;5050515;28;20520;-75
2023/04/16 06:11:26;;;;;;;20.20;12.63;;;;;;;;;;5069615;28;20179;-74
2023/04/16 06:14:11;;;;;;;18.45;11.68;;;;;;;;;;5070940;28;20032;-75
2023/04/16 06:16:56;;;;;;;21.42;12.77;;;;;;;;;;5091545;28;20127;-75
2023/04/16 06:19:42;;;;;;;20.10;13.85;;;;;;;;;;5068890;28;20056;-74
2023/04/16 06:22:27;;;;;;;20.50;13.60;;;;;;;;;;5061363;28;20490;-74
2023/04/16 06:25:12;;;;;;;20.23;13.32;;;;;;;;;;5067724;28;20498;-76
2023/04/16 06:27:57;;;;;;;19.80;12.93;;;;;;;;;;5068977;28;20111;-76
2023/04/16 06:30:43;;;;;;;19.33;12.10;;;;;;;;;;5057279;28;20356;-76
2023/04/16 06:33:28;;;;;;;18.95;12.07;;;;;;;;;;5084613;28;20032;-76
2023/04/16 06:36:13;;;;;;;20.13;12.38;;;;;;;;;;5058656;28;20024;-75
2023/04/16 06:38:58;;;;;;;18.55;12.05;;;;;;;;;;5069930;28;20479;-69
2023/04/16 06:41:44;;;;;;;19.50;13.55;;;;;;;;;;5054736;28;20047;-70
2023/04/16 06:44:29;;;;;;;20.42;12.80;;;;;;;;;;5043269;28;20554;-75
2023/04/16 06:47:15;;;;;;;19.52;12.32;;;;;;;;;;5070175;28;20125;-75
2023/04/16 06:50:00;;;;;;;21.73;13.52;;;;;;;;;;5070055;28;20028;-76
2023/04/16 06:52:45;;;;;;;21.08;13.82;;;;;;;;;;5069851;28;20439;-77
2023/04/16 06:55:30;;;;;;;19.40;12.75;;;;;;;;;;5069381;28;20029;-76
2023/04/16 06:58:15;;;;;;;19.50;12.50;;;;;;;;;;5070803;28;20063;-76
2023/04/16 07:01:01;;;;;;;20.52;12.82;;;;;;;;;;5069848;28;20024;-70
2023/04/16 07:03:46;;;;;;;22.00;13.98;;;;;;;;;;5084155;28;20032;-70
2023/04/16 07:06:31;;;;;;;18.85;12.35;;;;;;;;;;5047355;28;20032;-69
2023/04/16 07:09:17;;;;;;;22.45;14.35;;;;;;;;;;5069801;28;20074;-69
2023/04/16 07:12:02;;;;;;;21.60;14.45;;;;;;;;;;5068242;28;20020;-70
2023/04/16 07:14:47;;;;;;;21.05;12.98;;;;;;;;;;5082951;28;20063;-71
2023/04/16 07:17:32;;;;;;;19.40;12.75;;;;;;;;;;5092075;28;20035;-74
2023/04/16 07:20:18;;;;;;;23.60;13.75;;;;;;;;;;5069718;28;20405;-69
2023/04/16 07:23:03;;;;;;;21.75;13.70;;;;;;;;;;5057819;28;20035;-70
2023/04/16 07:25:48;;;;;;;17.75;11.88;;;;;;;;;;5058512;28;20028;-68
2023/04/16 07:28:33;;;;;;;18.73;11.95;;;;;;;;;;5061425;28;20433;-69
2023/04/16 07:31:18;;;;;;;16.98;11.98;;;;;;;;;;5069332;28;20117;-70
2023/04/16 07:34:04;;;;;;;23.60;14.02;;;;;;;;;;5082354;28;20526;-73
2023/04/16 07:36:49;;;;;;;19.48;12.98;;;;;;;;;;5075627;28;20075;-75
2023/04/16 07:39:34;;;;;;;19.20;13.40;;;;;;;;;;5069521;28;20509;-75
2023/04/16 07:42:20;;;;;;;19.67;13.20;;;;;;;;;;5069012;28;20178;-75
2023/04/16 07:45:06;;;;;;;21.52;13.13;;;;;;;;;;5083195;28;20053;-74
2023/04/16 07:47:51;;;;;;;18.63;12.18;;;;;;;;;;5057839;28;20044;-75
2023/04/16 07:50:36;;;;;;;17.35;10.95;;;;;;;;;;5082095;28;20029;-74
2023/04/16 07:53:22;;;;;;;19.73;12.25;;;;;;;;;;5087767;28;20577;-75
2023/04/16 07:56:07;;;;;;;18.50;12.30;;;;;;;;;;5046931;28;20024;-74
2023/04/16 07:58:52;;;;;;;16.95;11.77;;;;;;;;;;5061697;28;20525;-75
2023/04/16 08:01:38;;;;;;;19.60;12.23;;;;;;;;;;5082431;28;20031;-75
2023/04/16 08:04:23;;;;;;;19.95;12.93;;;;;;;;;;5082184;28;20378;-76
2023/04/16 08:07:08;;;;;;;16.67;12.20;;;;;;;;;;5068270;28;20632;-76
2023/04/16 08:09:54;;;;;;;18.50;12.45;;;;;;;;;;5048695;28;20017;-76
2023/04/16 08:12:39;;;;;;;18.20;12.63;;;;;;;;;;5078374;28;20036;-76
2023/04/16 08:15:25;;;;;;;17.92;10.90;;;;;;;;;;5083986;28;20023;-69
2023/04/16 08:18:14;;;;;;;18.85;12.13;;;;;;;;;;5095616;28;20037;-71
2023/04/16 08:20:59;;;;;;;18.20;11.67;;;;;;;;;;5081396;28;20491;-71
2023/04/16 08:23:44;;;;;;;16.45;11.00;;;;;;;;;;5076853;28;20039;-70
2023/04/16 08:26:30;;;;;;;17.80;12.23;;;;;;;;;;5067446;28;20029;-69
2023/04/16 08:29:16;;;;;;;17.67;11.18;;;;;;;;;;5084940;28;20165;-77
2023/04/16 08:32:01;;;;;;;16.27;11.05;;;;;;;;;;5070724;28;20125;-76
2023/04/16 08:34:46;;;;;;;18.30;12.70;;;;;;;;;;5096227;28;20395;-75
2023/04/16 08:37:32;;;;;;;19.27;11.07;;;;;;;;;;5075207;28;20040;-76
2023/04/16 08:40:17;;;;;;;17.40;11.23;;;;;;;;;;5079465;28;20024;-76
2023/04/16 08:43:04;;;;;;;17.50;11.52;;;;;;;;;;5073385;28;20516;-74
2023/04/16 08:45:52;;;;;;;17.05;12.30;;;;;;;;;;5071456;28;20017;-76
2023/04/16 08:48:37;;;;;;;16.80;11.45;;;;;;;;;;5067352;28;20055;-74
2023/04/16 08:51:23;;;;;;;16.02;10.43;;;;;;;;;;5087854;28;20553;-72
2023/04/16 08:54:10;;;;;;;15.73;11.60;;;;;;;;;;5069368;28;20036;-71
2023/04/16 08:56:57;;;;;;;16.77;11.38;;;;;;;;;;5068309;28;20055;-73
2023/04/16 08:59:44;;;;;;;17.38;11.35;;;;;;;;;;5047008;28;20036;-73
2023/04/16 09:02:30;;;;;;;19.73;10.98;;;;;;;;;;5050440;28;20033;-71
2023/04/16 09:05:20;;;;;;;16.25;10.07;;;;;;;;;;5050185;28;20104;-71
2023/04/16 09:08:05;;;;;;;16.88;9.60;;;;;;;;;;5054529;28;20050;-71
2023/04/16 09:10:51;;;;;;;14.75;9.73;;;;;;;;;;5053797;28;20040;-75
2023/04/16 09:13:37;;;;;;;14.55;9.65;;;;;;;;;;5060630;28;20039;-77
2023/04/16 09:16:22;;;;;;;15.73;9.88;;;;;;;;;;5055078;28;20167;-76
2023/04/16 09:19:07;;;;;;;16.52;10.07;;;;;;;;;;5067977;28;20043;-76
2023/04/16 09:21:53;;;;;;;15.02;9.40;;;;;;;;;;5063545;28;20025;-77
2023/04/16 09:24:38;;;;;;;15.05;9.32;;;;;;;;;;5077344;28;20020;-69
2023/04/16 09:27:24;;;;;;;19.08;10.73;;;;;;;;;;5035552;28;20021;-69
2023/04/16 09:30:20;;;;;;;17.52;10.82;;;;;;;;;;5064611;28;20736;-77
2023/04/16 09:33:21;;;;;;;15.70;9.63;;;;;;;;;;5081168;28;20037;-77
2023/04/16 09:36:07;;;;;;;15.27;10.13;;;;;;;;;;5062674;28;20023;-76
2023/04/16 09:38:53;;;;;;;15.65;10.30;;;;;;;;;;5073618;28;20024;-76
2023/04/16 09:41:39;;;;;;;18.92;11.05;;;;;;;;;;5085281;28;20123;-76
2023/04/16 09:44:33;;;;;;;15.93;10.38;;;;;;;;;;5064451;28;20112;-70
2023/04/16 09:47:19;;;;;;;16.10;9.90;;;;;;;;;;5071359;28;20472;-70
2023/04/16 09:50:05;;;;;;;18.83;9.98;;;;;;;;;;5070533;28;20357;-70
2023/04/16 09:52:50;;;;;;;17.88;10.07;;;;;;;;;;5057416;28;20028;-69
2023/04/16 09:55:35;;;;;;;16.92;10.25;;;;;;;;;;5081405;28;20064;-71
2023/04/16 09:58:23;;;;;;;16.77;9.70;;;;;;;;;;5069588;28;20029;-68
2023/04/16 10:01:09;;;;;;;16.55;10.50;;;;;;;;;;5082764;28;20020;-70
2023/04/16 10:03:55;;;;;;;15.68;10.10;;;;;;;;;;5099355;28;20530;-71
2023/04/16 10:06:40;;;;;;;16.17;10.88;;;;;;;;;;5075044;28;20517;-74
2023/04/16 10:09:30;;;;;;;16.17;9.98;;;;;;;;;;5070786;28;20028;-74
2023/04/16 10:12:15;;;;;;;;;;;;;;;;;;5071054;28;20443;-73
2023/04/16 10:15:00;;;;;;;18.30;10.15;;;;;;;;;;5073763;28;19912;-73
2023/04/16 10:17:46;;;;;;;15.55;10.07;;;;;;;;;;5070733;28;20039;-76
2023/04/16 10:20:31;;;;;;;15.07;9.77;;;;;;;;;;5050768;28;20044;-69
2023/04/16 10:23:18;;;;;;;19.52;11.18;;;;;;;;;;5058803;28;20021;-74
2023/04/16 10:26:04;;;;;;;18.25;12.07;;;;;;;;;;5083279;28;20120;-73
2023/04/16 10:28:49;;;;;;;18.70;11.20;;;;;;;;;;5054866;28;20029;-74
2023/04/16 10:31:35;;;;;;;19.55;11.07;;;;;;;;;;5070309;28;20028;-74
2023/04/16 10:34:22;;;;;;;17.33;10.43;;;;;;;;;;5072727;28;20023;-73
2023/04/16 10:37:07;;;;;;;16.40;11.50;;;;;;;;;;5064657;28;20028;-73
2023/04/16 10:39:52;;;;;;;19.02;10.65;;;;;;;;;;5070370;28;20078;-74
2023/04/16 10:42:37;;;;;;;15.68;10.98;;;;;;;;;;5084326;28;20151;-68
2023/04/16 10:45:29;;;;;;;17.70;10.10;;;;;;;;;;5074593;28;20036;-69
2023/04/16 10:48:17;;;;;;;23.88;11.05;;;;;;;;;;5050433;28;20049;-69
2023/04/16 10:51:04;;;;;;;14.43;9.80;;;;;;;;;;5083508;28;20551;-69
2023/04/16 10:53:49;;;;;;;15.77;10.35;;;;;;;;;;5070060;28;20032;-68
2023/04/16 10:56:35;;;;;;;15.70;9.40;;;;;;;;;;5055529;28;20387;-74
2023/04/16 10:59:22;;;;;;;16.88;10.18;;;;;;;;;;5080916;28;20024;-73
2023/04/16 11:02:10;;;;;;;15.55;10.02;;;;;;;;;;5084127;28;20025;-73
2023/04/16 11:04:56;;;;;;;15.20;10.30;;;;;;;;;;5083917;28;20039;-73
2023/04/16 11:07:46;;;;;;;16.65;9.35;;;;;;;;;;5069461;28;20525;-74
2023/04/16 11:10:37;;;;;;;15.18;9.40;;;;;;;;;;5055684;28;20060;-73
2023/04/16 11:13:23;;;;;;;16.00;9.02;;;;;;;;;;5094888;28;20613;-74
2023/04/16 11:16:09;;;;;;;16.05;9.10;;;;;;;;;;5069214;28;20044;-69
2023/04/16 11:18:55;;;;;;;15.15;9.05;;;;;;;;;;5069603;28;20382;-74
2023/04/16 11:21:43;;;;;;;13.75;7.82;;;;;;;;;;5067107;28;20028;-75
2023/04/16 11:24:29;;;;;;;10.68;7.20;;;;;;;;;;5060929;28;20029;-76
2023/04/16 11:27:15;;;;;;;13.57;7.10;;;;;;;;;;5069910;28;20050;-76
2023/04/16 11:30:01;;;;;;;11.23;6.95;;;;;;;;;;5079123;28;20043;-75
2023/04/16 11:32:46;;;;;;;11.32;6.72;;;;;;;;;;5082819;28;20024;-74
2023/04/16 11:35:31;;;;;;;10.38;5.88;;;;;;;;;;5067732;28;20032;-75
2023/04/16 11:38:17;;;;;;;15.05;7.70;;;;;;;;;;5089729;28;20016;-73
2023/04/16 11:41:02;;;;;;;9.70;5.32;;;;;;;;;;5065396;28;20971;-69
2023/04/16 11:43:48;;;;;;;9.70;5.43;;;;;;;;;;5070049;28;20410;-70
2023/04/16 11:46:36;;;;;;;9.90;5.45;;;;;;;;;;5069671;28;20044;-71
2023/04/16 11:49:31;;;;;;;9.55;5.28;;;;;;;;;;5069233;28;20174;-71
2023/04/16 11:52:32;;;;;;;9.48;5.13;;;;;;;;;;5068276;28;20067;-74
2023/04/16 11:55:17;;;;;;;8.50;4.18;;;;;;;;;;5068852;28;20098;-68
2023/04/16 11:58:14;;;;;;;9.32;4.75;;;;;;;;;;5080056;28;20360;-70
2023/04/16 12:01:01;;;;;;;9.13;5.03;;;;;;;;;;5077991;28;20433;-71
2023/04/16 12:03:48;;;;;;;8.68;4.88;;;;;;;;;;5069129;28;20051;-70
2023/04/16 12:06:33;;;;;;;8.80;4.55;;;;;;;;;;5070728;28;20115;-70
2023/04/16 12:09:25;;;;;;;7.22;3.78;;;;;;;;;;5096948;28;20036;-70
2023/04/16 12:12:29;;;;;;;7.70;4.10;;;;;;;;;;5054752;28;20432;-76
2023/04/16 12:15:14;;;;;;;8.02;4.38;;;;;;;;;;5061115;28;20028;-75
2023/04/16 12:18:06;;;;;;;6.30;3.67;;;;;;;;;;5068645;28;20589;-75
2023/04/16 12:20:52;;;;;;;5.03;3.25;;;;;;;;;;5068520;28;20130;-75
2023/04/16 12:23:37;;;;;;;5.28;3.08;;;;;;;;;;5040355;28;20040;-75
2023/04/16 12:26:23;;;;;;;6.57;3.28;;;;;;;;;;5068204;28;20046;-75
2023/04/16 12:29:20;;;;;;;4.88;2.97;;;;;;;;;;5068514;28;20027;-75
2023/04/16 12:32:19;;;;;;;6.03;3.22;;;;;;;;;;5080488;28;20032;-74
2023/04/16 12:35:04;;;;;;;5.22;3.10;;;;;;;;;;5068125;28;20039;-75
2023/04/16 12:37:50;;;;;;;5.90;3.08;;;;;;;;;;5055054;28;20090;-75
2023/04/16 12:40:35;;;;;;;6.10;3.60;;;;;;;;;;5070154;28;20066;-75
2023/04/16 12:43:21;;;;;;;5.15;2.90;;;;;;;;;;5068105;28;20042;-73
2023/04/16 12:46:06;;;;;;;6.35;3.80;;;;;;;;;;5064562;28;20020;-74
2023/04/16 12:48:51;;;;;;;5.55;3.17;;;;;;;;;;5067669;28;20049;-75
2023/04/16 12:51:37;;;;;;;4.00;2.55;;;;;;;;;;5071471;28;20127;-71
2023/04/16 12:54:23;;;;;;;5.70;3.33;;;;;;;;;;5068007;28;20036;-72
2023/04/16 12:57:08;;;;;;;6.45;3.58;;;;;;;;;;5062006;28;20525;-71
2023/04/16 12:59:57;;;;;;;6.45;3.22;;;;;;;;;;5067025;28;20084;-71
2023/04/16 13:02:42;;;;;;;5.78;3.00;;;;;;;;;;5080116;28;20028;-69
2023/04/16 13:05:27;;;;;;;5.93;3.42;;;;;;;;;;5067868;28;20024;-74
2023/04/16 13:08:12;;;;;;;4.30;3.10;;;;;;;;;;5083601;28;20427;-71
2023/04/16 13:10:57;;;;;;;4.70;3.10;;;;;;;;;;5071050;28;20058;-69
2023/04/16 13:13:43;;;;;;;6.13;3.38;;;;;;;;;;5071489;28;20086;-70
2023/04/16 13:16:28;;;;;;;5.40;3.17;;;;;;;;;;5076011;28;20059;-69
2023/04/16 13:19:14;;;;;;;4.43;3.28;;;;;;;;;;5071721;28;20052;-69
2023/04/16 13:22:00;;;;;;;7.22;4.43;;;;;;;;;;5070440;28;20013;-69
2023/04/16 13:24:45;;;;;;;4.68;3.50;;;;;;;;;;5071561;28;20036;-75
2023/04/16 13:27:31;;;;;;;5.97;4.10;;;;;;;;;;5060090;28;20029;-74
2023/04/16 13:30:16;;;;;;;6.57;4.25;;;;;;;;;;5084659;28;20070;-76
2023/04/16 13:33:02;;;;;;;7.13;4.60;;;;;;;;;;5071572;28;20269;-76
2023/04/16 13:35:47;;;;;;;5.03;3.55;;;;;;;;;;5057694;28;20490;-76
2023/04/16 13:38:32;;;;;;;6.80;4.00;;;;;;;;;;5071290;28;20115;-75
2023/04/16 13:41:18;;;;;;;8.98;4.32;;;;;;;;;;5080441;28;20614;-75
2023/04/16 13:44:03;;;;;;;7.00;4.22;;;;;;;;;;5099699;28;20059;-75
2023/04/16 13:46:48;;;;;;;5.95;3.60;;;;;;;;;;5084772;28;20128;-70
2023/04/16 13:49:34;;;;;;;6.43;3.50;;;;;;;;;;5059955;28;20037;-70
2023/04/16 13:52:19;;;;;;;6.50;4.30;;;;;;;;;;5084748;28;20650;-70
2023/04/16 13:55:05;;;;;;;5.45;3.50;;;;;;;;;;5071202;28;20036;-68
2023/04/16 13:57:52;;;;;;;6.25;3.50;;;;;;;;;;5082246;28;20107;-70
2023/04/16 14:00:37;;;;;;;7.20;4.40;;;;;;;;;;5068594;28;20059;-74
2023/04/16 14:03:23;;;;;;;6.43;4.18;;;;;;;;;;5069202;28;20028;-78
2023/04/16 14:06:09;;;;;;;6.18;4.15;;;;;;;;;;5084329;28;20050;-70
2023/04/16 14:08:54;;;;;;;6.80;4.10;;;;;;;;;;5069684;28;20051;-70
2023/04/16 14:11:39;;;;;;;7.60;4.78;;;;;;;;;;5070536;28;20029;-70
2023/04/16 14:14:25;;;;;;;8.38;4.53;;;;;;;;;;5066996;28;20027;-69
2023/04/16 14:17:12;;;;;;;8.10;5.07;;;;;;;;;;5062902;28;20039;-69
2023/04/16 14:19:57;;;;;;;7.78;4.47;;;;;;;;;;5070409;28;20086;-75
2023/04/16 14:22:45;;;;;;;8.98;4.82;;;;;;;;;;5066175;28;20036;-73
2023/04/16 14:25:30;;;;;;;8.57;5.25;;;;;;;;;;5073515;28;20027;-71
2023/04/16 14:28:15;;;;;;;8.93;5.85;;;;;;;;;;5058813;28;20032;-72
2023/04/16 14:31:01;;;;;;;9.68;5.50;;;;;;;;;;5076830;28;20029;-74
2023/04/16 14:33:46;;;;;;;7.82;5.07;;;;;;;;;;5067406;28;20318;-73
2023/04/16 14:36:31;;;;;;;9.70;5.47;;;;;;;;;;5069175;28;20028;-73
2023/04/16 14:39:17;;;;;;;8.80;5.53;;;;;;;;;;5071823;28;20085;-75
2023/04/16 14:42:02;;;;;;;8.93;5.47;;;;;;;;;;5069971;28;20098;-74
2023/04/16 14:44:47;;;;;;;8.63;4.43;;;;;;;;;;5054606;28;20032;-77
2023/04/16 14:47:33;;;;;;;8.70;5.18;;;;;;;;;;5079190;28;20051;-74
2023/04/16 14:50:18;;;;;;;9.85;6.70;;;;;;;;;;5069536;28;20475;-75
2023/04/16 14:53:04;;;;;;;10.50;6.72;;;;;;;;;;5086997;28;20020;-75
2023/04/16 14:55:51;;;;;;;17.73;7.38;;;;;;;;;;5081388;28;20052;-69
2023/04/16 14:58:37;;;;;;;10.25;6.50;;;;;;;;;;5072645;28;20036;-70
2023/04/16 15:01:22;;;;;;;14.00;7.80;;;;;;;;;;5071937;28;20043;-74
2023/04/16 15:04:07;;;;;;;12.43;8.35;;;;;;;;;;5060213;28;20095;-75
2023/04/16 15:06:53;;;;;;;13.25;8.05;;;;;;;;;;5070038;28;20033;-76
2023/04/16 15:09:38;;;;;;;11.18;7.05;;;;;;;;;;5069633;28;20499;-76
2023/04/16 15:12:23;;;;;;;12.43;8.85;;;;;;;;;;5077459;28;20028;-77
2023/04/16 15:15:09;;;;;;;12.00;8.55;;;;;;;;;;5068813;28;20379;-75
2023/04/16 15:17:55;;;;;;;14.77;9.68;;;;;;;;;;5081174;28;20117;-70
2023/04/16 15:20:41;;;;;;;13.32;9.05;;;;;;;;;;5069279;28;20056;-69
2023/04/16 15:23:26;;;;;;;20.35;11.48;;;;;;;;;;5048607;28;20941;-71
2023/04/16 15:26:11;;;;;;;15.18;9.43;;;;;;;;;;5055553;28;20622;-69
2023/04/16 15:28:57;;;;;;;20.00;10.77;;;;;;;;;;5069248;28;20109;-70
2023/04/16 15:31:42;;;;;;;16.08;9.85;;;;;;;;;;5066229;28;20427;-71
2023/04/16 15:34:27;;;;;;;16.42;11.45;;;;;;;;;;5068309;28;20031;-77
2023/04/16 15:37:12;;;;;;;16.65;10.82;;;;;;;;;;5075983;28;20020;-76
2023/04/16 15:39:58;;;;;;;14.55;9.82;;;;;;;;;;5083161;28;20479;-75
2023/04/16 15:42:43;;;;;;;15.52;9.52;;;;;;;;;;5064334;28;20036;-75
2023/04/16 15:45:28;;;;;;;14.07;9.38;;;;;;;;;;5068392;28;20471;-78
2023/04/16 15:48:13;;;;;;;13.90;9.05;;;;;;;;;;5079534;28;20086;-76
2023/04/16 15:50:59;;;;;;;12.77;9.05;;;;;;;;;;5054154;28;20025;-76
2023/04/16 15:53:44;;;;;;;12.73;7.55;;;;;;;;;;5050602;28;20530;-76
2023/04/16 15:56:30;;;;;;;11.80;7.25;;;;;;;;;;5069334;28;20024;-77
2023/04/16 15:59:15;;;;;;;12.05;7.72;;;;;;;;;;5083688;28;20066;-76
2023/04/16 16:02:01;;;;;;;12.43;7.78;;;;;;;;;;5066672;28;20024;-76
2023/04/16 16:04:46;;;;;;;11.55;6.93;;;;;;;;;;5068920;28;20221;-75
2023/04/16 16:07:31;;;;;;;10.50;6.70;;;;;;;;;;5068837;28;20086;-75
2023/04/16 16:10:17;;;;;;;11.98;7.80;;;;;;;;;;5069456;28;20063;-73
2023/04/16 16:13:04;;;;;;;11.30;6.80;;;;;;;;;;5081888;28;20531;-75
2023/04/16 16:15:49;;;;;;;12.88;7.75;;;;;;;;;;5068145;28;20029;-77
2023/04/16 16:18:35;;;;;;;13.95;8.82;;;;;;;;;;5073132;28;20467;-76
2023/04/16 16:21:21;;;;;;;11.40;7.22;;;;;;;;;;5051249;28;20031;-76
2023/04/16 16:24:06;;;;;;;10.95;6.90;;;;;;;;;;5050508;28;20021;-74
2023/04/16 16:26:51;;;;;;;12.75;7.90;;;;;;;;;;5067513;28;20028;-76